Terminal Aerodrome Forecast
Issued by NWS

Home | Current Version | Previous Version | Text Only | Print | Product List | Glossary On
Versions: 1 2 3 4 5 6 7 8 9 10 11 12 13 14 15 16 17 18 19 20
000
FTUS43 KMPX 301700
TAFAXN
TAF
KAXN 301724Z 3018/0118 12012G19KT P6SM SCT004 SCT012 OVC090
     FM302100 13018G24KT P6SM VCSH SCT006 BKN025 OVC050
      TEMPO 3022/0101 6SM SHRA BR OVC015
     FM010400 13017KT 6SM BR OVC015
     FM010600 14015KT 3SM BR OVC003
     FM011600 20011KT P6SM OVC015=

USA.gov is the U.S. government's official web portal to all federal, state and local government web resources and services.